Time;durP1;ratioP1;P1;durP2;ratioP2;P2;SDS_P1;SDS_P2;PMS_P1;PMS_P2;Temp;Humidity;BMP_temperature;BMP_pressure;BME280_temperature;BME280_humidity;BME280_pressure;Samples;Min_cycle;Max_cycle;Signal;HPM_P1;HPM_P2
2022/01/07 00:01:33;;;;;;;9.60;2.80;;;;;;;;;;5075069;28;20128;-74
2022/01/07 00:04:01;;;;;;;4.70;2.75;;;;;;;;;;5074674;28;20067;-75
2022/01/07 00:06:28;;;;;;;3.22;2.40;;;;;;;;;;5075016;28;20123;-70
2022/01/07 00:08:55;;;;;;;5.22;2.28;;;;;;;;;;5075160;28;20040;-71
2022/01/07 00:11:23;;;;;;;7.60;2.30;;;;;;;;;;5074917;28;20046;-74
2022/01/07 00:13:51;;;;;;;4.32;2.13;;;;;;;;;;5074941;28;20045;-74
2022/01/07 00:16:18;;;;;;;6.82;2.63;;;;;;;;;;5074231;28;20044;-70
2022/01/07 00:18:46;;;;;;;7.90;2.60;;;;;;;;;;5056925;28;20039;-70
2022/01/07 00:21:14;;;;;;;6.38;2.33;;;;;;;;;;5073656;28;20047;-75
2022/01/07 00:23:42;;;;;;;6.75;2.47;;;;;;;;;;5074424;28;20044;-75
2022/01/07 00:26:10;;;;;;;4.50;2.22;;;;;;;;;;5074596;28;20044;-70
2022/01/07 00:28:38;;;;;;;4.50;2.63;;;;;;;;;;5074318;28;20044;-70
2022/01/07 00:31:05;;;;;;;3.85;2.35;;;;;;;;;;5073181;28;20044;-70
2022/01/07 00:33:33;;;;;;;12.40;2.65;;;;;;;;;;5074188;28;20048;-75
2022/01/07 00:36:00;;;;;;;8.73;2.65;;;;;;;;;;5074207;28;20052;-74
2022/01/07 00:38:30;;;;;;;4.95;2.35;;;;;;;;;;5074387;28;20376;-74
2022/01/07 00:40:57;;;;;;;6.88;2.60;;;;;;;;;;5073849;28;20127;-70
2022/01/07 00:43:25;;;;;;;3.15;2.03;;;;;;;;;;5073115;28;20495;-69
2022/01/07 00:45:52;;;;;;;5.47;2.30;;;;;;;;;;5074216;28;20040;-74
2022/01/07 00:48:20;;;;;;;8.90;2.53;;;;;;;;;;5074241;28;20052;-74
2022/01/07 00:50:48;;;;;;;5.03;2.20;;;;;;;;;;5074102;28;20036;-74
2022/01/07 00:53:15;;;;;;;4.43;2.72;;;;;;;;;;5073796;28;20510;-74
2022/01/07 00:55:44;;;;;;;6.28;2.83;;;;;;;;;;5073946;28;20041;-74
2022/01/07 00:58:12;;;;;;;6.70;3.13;;;;;;;;;;5073840;28;20043;-74
2022/01/07 01:00:39;;;;;;;8.30;3.33;;;;;;;;;;5074031;28;20050;-70
2022/01/07 01:03:07;;;;;;;6.93;3.50;;;;;;;;;;5072702;28;20041;-74
2022/01/07 01:05:36;;;;;;;8.60;3.42;;;;;;;;;;5073577;28;20094;-69
2022/01/07 01:08:04;;;;;;;7.97;3.35;;;;;;;;;;5073577;28;20040;-70
2022/01/07 01:10:31;;;;;;;5.93;3.20;;;;;;;;;;5072675;28;20064;-69
2022/01/07 01:12:59;;;;;;;6.32;3.35;;;;;;;;;;5073609;28;20041;-74
2022/01/07 01:15:28;;;;;;;9.27;3.30;;;;;;;;;;5072280;28;20472;-73
2022/01/07 01:17:56;;;;;;;5.75;3.10;;;;;;;;;;5072935;28;20356;-69
2022/01/07 01:20:24;;;;;;;4.95;2.88;;;;;;;;;;5073540;28;20570;-69
2022/01/07 01:22:51;;;;;;;9.57;3.40;;;;;;;;;;5073363;28;20442;-74
2022/01/07 01:25:19;;;;;;;18.48;5.68;;;;;;;;;;5073370;28;20090;-74
2022/01/07 01:27:49;;;;;;;8.60;4.50;;;;;;;;;;5073333;28;20049;-73
2022/01/07 01:30:17;;;;;;;8.32;3.63;;;;;;;;;;5072912;28;20124;-74
2022/01/07 01:32:50;;;;;;;6.60;3.22;;;;;;;;;;5073293;28;20040;-74
2022/01/07 01:35:18;;;;;;;6.83;3.33;;;;;;;;;;5073019;28;20044;-74
2022/01/07 01:37:46;;;;;;;4.68;2.80;;;;;;;;;;5055432;28;20484;-69
2022/01/07 01:40:14;;;;;;;6.88;3.50;;;;;;;;;;5072631;28;20399;-69
2022/01/07 01:42:42;;;;;;;7.90;3.05;;;;;;;;;;5073127;28;20071;-74
2022/01/07 01:45:10;;;;;;;9.25;3.10;;;;;;;;;;5073006;28;20045;-73
2022/01/07 01:47:39;;;;;;;6.75;3.50;;;;;;;;;;5073142;28;20460;-73
2022/01/07 01:50:07;;;;;;;5.60;3.15;;;;;;;;;;5072890;28;20036;-69
2022/01/07 01:52:35;;;;;;;7.93;3.25;;;;;;;;;;5054696;28;20123;-73
2022/01/07 01:55:05;;;;;;;6.55;3.20;;;;;;;;;;5073108;28;20045;-69
2022/01/07 01:57:32;;;;;;;8.38;3.30;;;;;;;;;;5073145;28;20044;-74
2022/01/07 02:00:00;;;;;;;5.38;2.90;;;;;;;;;;5072848;28;20044;-73
2022/01/07 02:02:38;;;;;;;6.10;3.08;;;;;;;;;;5072867;28;20041;-70
2022/01/07 02:05:08;;;;;;;7.10;3.40;;;;;;;;;;5072438;28;20045;-74
2022/01/07 02:07:37;;;;;;;6.25;2.95;;;;;;;;;;5073091;28;20403;-74
2022/01/07 02:10:07;;;;;;;8.40;3.00;;;;;;;;;;5072953;28;20041;-69
2022/01/07 02:12:34;;;;;;;7.10;2.80;;;;;;;;;;5072615;28;20119;-69
2022/01/07 02:15:03;;;;;;;5.68;2.80;;;;;;;;;;5072868;28;20135;-74
2022/01/07 02:17:30;;;;;;;5.85;2.90;;;;;;;;;;5072429;28;20080;-72
2022/01/07 02:19:58;;;;;;;8.27;3.00;;;;;;;;;;5072483;28;20033;-74
2022/01/07 02:22:26;;;;;;;12.05;3.05;;;;;;;;;;5072460;28;20139;-74
2022/01/07 02:24:54;;;;;;;7.20;2.95;;;;;;;;;;5072724;28;20496;-74
2022/01/07 02:27:25;;;;;;;6.53;2.95;;;;;;;;;;5072491;28;20067;-73
2022/01/07 02:29:54;;;;;;;9.32;2.85;;;;;;;;;;5072451;28;20045;-74
2022/01/07 02:32:22;;;;;;;12.00;3.83;;;;;;;;;;5072679;28;20049;-69
2022/01/07 02:34:49;;;;;;;5.40;3.35;;;;;;;;;;5072525;28;20451;-69
2022/01/07 02:37:18;;;;;;;6.45;3.13;;;;;;;;;;5072617;28;20036;-74
2022/01/07 02:39:49;;;;;;;6.18;2.97;;;;;;;;;;5072527;28;20043;-69
2022/01/07 02:42:17;;;;;;;6.32;3.92;;;;;;;;;;5072252;28;20043;-74
2022/01/07 02:44:45;;;;;;;6.47;3.03;;;;;;;;;;5054508;28;20052;-73
2022/01/07 02:47:13;;;;;;;5.15;2.55;;;;;;;;;;5072402;28;20049;-70
2022/01/07 02:49:40;;;;;;;5.28;2.50;;;;;;;;;;5072487;28;20048;-70
2022/01/07 02:52:09;;;;;;;7.40;2.47;;;;;;;;;;5072423;28;20044;-69
2022/01/07 02:54:38;;;;;;;5.18;2.40;;;;;;;;;;5072174;28;20036;-73
2022/01/07 02:57:05;;;;;;;4.88;2.70;;;;;;;;;;5072318;28;20047;-69
2022/01/07 02:59:33;;;;;;;4.05;2.40;;;;;;;;;;5072501;28;20047;-73
2022/01/07 03:02:01;;;;;;;6.30;2.83;;;;;;;;;;5072258;28;20503;-73
2022/01/07 03:04:29;;;;;;;5.63;2.30;;;;;;;;;;5071864;28;20048;-69
2022/01/07 03:06:56;;;;;;;6.65;2.28;;;;;;;;;;5054380;28;20521;-75
2022/01/07 03:09:24;;;;;;;3.40;2.22;;;;;;;;;;5071781;28;20528;-69
2022/01/07 03:11:51;;;;;;;7.32;2.55;;;;;;;;;;5071838;28;20056;-74
2022/01/07 03:14:19;;;;;;;7.50;2.90;;;;;;;;;;5072315;28;20052;-74
2022/01/07 03:16:47;;;;;;;4.45;2.65;;;;;;;;;;5071781;28;20407;-69
2022/01/07 03:19:14;;;;;;;10.13;2.88;;;;;;;;;;5072281;28;20047;-69
2022/01/07 03:21:42;;;;;;;3.90;2.88;;;;;;;;;;5071958;28;20055;-74
2022/01/07 03:24:09;;;;;;;7.47;2.50;;;;;;;;;;5071843;28;20412;-69
2022/01/07 03:26:37;;;;;;;6.72;3.08;;;;;;;;;;5072006;28;20049;-73
2022/01/07 03:29:06;;;;;;;7.95;2.97;;;;;;;;;;5071865;28;20514;-70
2022/01/07 03:31:34;;;;;;;8.20;2.95;;;;;;;;;;5072007;28;20048;-74
2022/01/07 03:34:01;;;;;;;10.45;2.83;;;;;;;;;;5075674;28;20428;-69
2022/01/07 03:36:28;;;;;;;3.95;2.47;;;;;;;;;;5075543;28;20119;-74
2022/01/07 03:39:01;;;;;;;6.22;2.70;;;;;;;;;;5075466;28;20047;-74
2022/01/07 03:41:28;;;;;;;5.57;2.97;;;;;;;;;;5075053;28;20044;-69
2022/01/07 03:43:56;;;;;;;8.02;3.72;;;;;;;;;;5075560;28;20094;-69
2022/01/07 03:46:24;;;;;;;12.80;5.00;;;;;;;;;;5075242;28;20052;-69
2022/01/07 03:48:51;;;;;;;8.52;4.00;;;;;;;;;;5075366;28;20592;-69
2022/01/07 03:51:21;;;;;;;6.53;4.00;;;;;;;;;;5075291;28;20055;-74
2022/01/07 03:53:48;;;;;;;11.50;5.22;;;;;;;;;;5075085;28;20044;-74
2022/01/07 03:56:18;;;;;;;12.20;4.03;;;;;;;;;;5075097;28;20043;-74
2022/01/07 03:58:46;;;;;;;11.60;4.13;;;;;;;;;;5057444;28;20502;-70
2022/01/07 04:01:13;;;;;;;6.65;3.58;;;;;;;;;;5057117;28;20407;-74
2022/01/07 04:03:42;;;;;;;5.25;3.05;;;;;;;;;;5075033;28;20420;-69
2022/01/07 04:06:14;;;;;;;6.50;3.10;;;;;;;;;;5074649;28;20392;-70
2022/01/07 04:08:41;;;;;;;10.00;3.50;;;;;;;;;;5074664;28;20515;-70
2022/01/07 04:11:12;;;;;;;10.18;3.13;;;;;;;;;;5074838;28;20036;-74
2022/01/07 04:13:40;;;;;;;9.48;3.75;;;;;;;;;;5074873;28;20045;-73
2022/01/07 04:16:08;;;;;;;13.15;4.28;;;;;;;;;;5074653;28;20043;-70
2022/01/07 04:18:38;;;;;;;8.25;3.92;;;;;;;;;;5074591;28;20048;-69
2022/01/07 04:21:05;;;;;;;10.05;3.78;;;;;;;;;;5074513;28;20036;-69
2022/01/07 04:23:33;;;;;;;8.82;4.53;;;;;;;;;;5074739;28;20119;-69
2022/01/07 04:26:00;;;;;;;9.93;3.88;;;;;;;;;;5074527;28;20044;-74
2022/01/07 04:28:28;;;;;;;7.57;3.42;;;;;;;;;;5074409;28;20036;-74
2022/01/07 04:30:56;;;;;;;8.23;3.45;;;;;;;;;;5074852;28;20036;-70
2022/01/07 04:33:29;;;;;;;10.43;3.50;;;;;;;;;;5074485;28;20075;-73
2022/01/07 04:35:59;;;;;;;6.70;3.60;;;;;;;;;;5074519;28;20040;-74
2022/01/07 04:38:28;;;;;;;8.60;3.55;;;;;;;;;;5074497;28;20044;-73
2022/01/07 04:40:55;;;;;;;8.02;3.08;;;;;;;;;;5073976;28;20071;-70
2022/01/07 04:43:23;;;;;;;10.73;3.60;;;;;;;;;;5074160;28;20082;-69
2022/01/07 04:45:51;;;;;;;8.07;3.45;;;;;;;;;;5074357;28;20470;-74
2022/01/07 04:48:19;;;;;;;9.60;3.70;;;;;;;;;;5074226;28;20123;-74
2022/01/07 04:50:46;;;;;;;10.75;3.53;;;;;;;;;;5074011;28;20041;-69
2022/01/07 04:53:14;;;;;;;9.88;3.60;;;;;;;;;;5073762;28;20067;-69
2022/01/07 04:55:44;;;;;;;7.28;3.33;;;;;;;;;;5055943;28;20442;-73
2022/01/07 04:58:12;;;;;;;5.60;3.13;;;;;;;;;;5056307;28;20075;-74
2022/01/07 05:00:41;;;;;;;10.98;3.40;;;;;;;;;;5073880;28;20041;-74
2022/01/07 05:03:09;;;;;;;7.63;3.80;;;;;;;;;;5073826;28;20085;-74
2022/01/07 05:05:39;;;;;;;9.95;3.75;;;;;;;;;;5073615;28;20043;-73
2022/01/07 05:08:07;;;;;;;9.18;3.50;;;;;;;;;;5073869;28;20079;-69
2022/01/07 05:10:35;;;;;;;9.73;3.35;;;;;;;;;;5055746;28;20115;-74
2022/01/07 05:13:02;;;;;;;11.65;4.00;;;;;;;;;;5073906;28;20462;-69
2022/01/07 05:15:30;;;;;;;10.32;3.70;;;;;;;;;;5073729;28;20067;-69
2022/01/07 05:17:58;;;;;;;7.75;3.60;;;;;;;;;;5073094;28;20291;-74
2022/01/07 05:20:27;;;;;;;7.95;4.07;;;;;;;;;;5073570;28;20037;-69
2022/01/07 05:22:54;;;;;;;8.73;3.85;;;;;;;;;;5055873;28;20040;-74
2022/01/07 05:25:22;;;;;;;10.23;3.72;;;;;;;;;;5073303;28;20051;-69
2022/01/07 05:27:50;;;;;;;9.77;3.78;;;;;;;;;;5073453;28;20048;-69
2022/01/07 05:30:18;;;;;;;6.93;4.00;;;;;;;;;;5072895;28;20041;-74
2022/01/07 05:32:45;;;;;;;10.45;4.10;;;;;;;;;;5073569;28;20044;-75
2022/01/07 05:35:14;;;;;;;8.05;4.40;;;;;;;;;;5073300;28;20090;-70
2022/01/07 05:37:42;;;;;;;15.38;4.68;;;;;;;;;;5072991;28;20464;-74
2022/01/07 05:40:10;;;;;;;9.85;4.10;;;;;;;;;;5073510;28;20440;-75
2022/01/07 05:42:38;;;;;;;12.30;4.63;;;;;;;;;;5072964;28;20087;-69
2022/01/07 05:45:08;;;;;;;11.20;4.10;;;;;;;;;;5072876;28;20119;-73
2022/01/07 05:47:35;;;;;;;11.13;3.88;;;;;;;;;;5072892;28;20511;-70
2022/01/07 05:50:05;;;;;;;13.10;4.43;;;;;;;;;;5073223;28;20115;-74
2022/01/07 05:52:32;;;;;;;9.40;4.55;;;;;;;;;;5072754;28;20044;-74
2022/01/07 05:54:59;;;;;;;14.27;4.85;;;;;;;;;;5072373;28;20041;-69
2022/01/07 05:57:28;;;;;;;8.85;4.07;;;;;;;;;;5072905;28;20079;-74
2022/01/07 05:59:56;;;;;;;9.05;4.80;;;;;;;;;;5072745;28;20078;-69
2022/01/07 06:02:24;;;;;;;12.18;5.57;;;;;;;;;;5072962;28;20124;-70
2022/01/07 06:04:52;;;;;;;11.98;5.25;;;;;;;;;;5072637;28;20233;-69
2022/01/07 06:07:20;;;;;;;11.73;5.18;;;;;;;;;;5072866;28;20055;-74
2022/01/07 06:09:48;;;;;;;9.60;4.53;;;;;;;;;;5072681;28;20052;-73
2022/01/07 06:12:16;;;;;;;13.18;5.20;;;;;;;;;;5072770;28;20403;-74
2022/01/07 06:14:43;;;;;;;17.45;4.80;;;;;;;;;;5072750;28;20052;-69
2022/01/07 06:17:12;;;;;;;12.07;5.10;;;;;;;;;;5072459;28;20044;-74
2022/01/07 06:19:39;;;;;;;12.45;6.30;;;;;;;;;;5072731;28;20068;-70
2022/01/07 06:22:09;;;;;;;11.38;5.55;;;;;;;;;;5072682;28;20060;-70
2022/01/07 06:24:36;;;;;;;11.07;5.05;;;;;;;;;;5072519;28;20053;-69
2022/01/07 06:27:04;;;;;;;12.95;5.60;;;;;;;;;;5072779;28;20052;-74
2022/01/07 06:29:32;;;;;;;13.95;5.57;;;;;;;;;;5072172;28;20055;-70
2022/01/07 06:31:59;;;;;;;14.52;5.72;;;;;;;;;;5072798;28;20055;-74
2022/01/07 06:34:27;;;;;;;12.05;5.53;;;;;;;;;;5072653;28;20041;-69
2022/01/07 06:36:58;;;;;;;16.75;6.25;;;;;;;;;;5054485;28;20412;-73
2022/01/07 06:39:28;;;;;;;14.85;6.47;;;;;;;;;;5072641;28;20076;-69
2022/01/07 06:41:58;;;;;;;15.63;6.05;;;;;;;;;;5072350;28;20466;-69
2022/01/07 06:44:26;;;;;;;15.68;5.97;;;;;;;;;;5072359;28;20055;-69
2022/01/07 06:46:55;;;;;;;12.10;6.30;;;;;;;;;;5054438;28;20440;-74
2022/01/07 06:49:23;;;;;;;16.50;6.85;;;;;;;;;;5072312;28;20051;-74
2022/01/07 06:51:51;;;;;;;16.08;6.63;;;;;;;;;;5072338;28;20067;-74
2022/01/07 06:54:20;;;;;;;22.88;9.23;;;;;;;;;;5072184;28;20719;-75
2022/01/07 06:56:47;;;;;;;18.60;7.78;;;;;;;;;;5054528;28;20033;-73
2022/01/07 06:59:15;;;;;;;14.77;7.47;;;;;;;;;;5072246;28;20085;-75
2022/01/07 07:01:43;;;;;;;16.20;6.97;;;;;;;;;;5072430;28;20045;-71
2022/01/07 07:04:11;;;;;;;15.45;7.80;;;;;;;;;;5072295;28;20074;-74
2022/01/07 07:06:39;;;;;;;16.92;7.32;;;;;;;;;;5072126;28;20041;-71
2022/01/07 07:09:06;;;;;;;14.93;7.25;;;;;;;;;;5075599;28;20090;-73
2022/01/07 07:11:34;;;;;;;20.25;7.53;;;;;;;;;;5075980;28;20029;-74
2022/01/07 07:14:03;;;;;;;17.77;7.15;;;;;;;;;;5076052;28;20055;-69
2022/01/07 07:16:30;;;;;;;13.90;6.38;;;;;;;;;;5075458;28;20059;-69
2022/01/07 07:18:58;;;;;;;13.32;6.95;;;;;;;;;;5075356;28;20036;-69
2022/01/07 07:21:25;;;;;;;13.73;6.30;;;;;;;;;;5075822;28;20487;-73
2022/01/07 07:23:53;;;;;;;15.60;7.20;;;;;;;;;;5075589;28;20056;-71
2022/01/07 07:26:20;;;;;;;15.57;6.93;;;;;;;;;;5075506;28;20048;-75
2022/01/07 07:28:50;;;;;;;16.58;7.30;;;;;;;;;;5075560;28;20040;-69
2022/01/07 07:31:19;;;;;;;18.45;7.05;;;;;;;;;;5075412;28;20082;-75
2022/01/07 07:36:27;;;;;;;22.95;7.40;;;;;;;;;;5075328;28;20040;-69
2022/01/07 07:38:55;;;;;;;16.33;7.35;;;;;;;;;;5074651;28;20052;-69
2022/01/07 07:41:22;;;;;;;16.08;7.53;;;;;;;;;;5074979;28;20491;-69
2022/01/07 07:43:50;;;;;;;16.25;7.70;;;;;;;;;;5057494;28;20051;-75
2022/01/07 07:46:18;;;;;;;19.50;8.55;;;;;;;;;;5057356;28;20476;-69
2022/01/07 07:48:51;;;;;;;22.67;8.88;;;;;;;;;;5075512;28;20064;-69
2022/01/07 07:51:19;;;;;;;21.73;8.50;;;;;;;;;;5075294;28;20503;-69
2022/01/07 07:53:48;;;;;;;16.15;8.00;;;;;;;;;;5074971;28;20102;-74
2022/01/07 07:56:16;;;;;;;17.98;8.00;;;;;;;;;;5075302;28;20412;-69
2022/01/07 07:58:44;;;;;;;19.13;8.25;;;;;;;;;;5075026;28;20040;-69
2022/01/07 08:01:12;;;;;;;21.52;8.32;;;;;;;;;;5075073;28;20037;-75
2022/01/07 08:03:41;;;;;;;17.58;6.63;;;;;;;;;;5075178;28;20033;-69
2022/01/07 08:06:10;;;;;;;14.70;6.65;;;;;;;;;;5074641;28;20045;-69
2022/01/07 08:08:39;;;;;;;21.73;6.75;;;;;;;;;;5075017;28;20534;-75
2022/01/07 08:11:09;;;;;;;17.20;7.60;;;;;;;;;;5074964;28;20047;-69
2022/01/07 08:16:30;;;;;;;16.17;6.82;;;;;;;;;;5074797;28;20063;-69
2022/01/07 08:19:01;;;;;;;16.75;7.30;;;;;;;;;;5073981;28;20127;-73
2022/01/07 08:21:29;;;;;;;14.82;6.93;;;;;;;;;;5074522;28;20039;-69
2022/01/07 08:23:59;;;;;;;14.27;6.30;;;;;;;;;;5074576;28;20083;-75
2022/01/07 08:26:27;;;;;;;16.15;6.40;;;;;;;;;;5074560;28;20115;-69
2022/01/07 08:29:00;;;;;;;16.42;6.50;;;;;;;;;;5074306;28;20052;-69
2022/01/07 08:36:42;;;;;;;12.00;6.30;;;;;;;;;;5074321;28;20055;-75
2022/01/07 08:39:10;;;;;;;12.90;5.43;;;;;;;;;;5074370;28;20147;-69
2022/01/07 08:41:38;;;;;;;16.83;5.55;;;;;;;;;;5074131;28;20043;-69
2022/01/07 08:44:06;;;;;;;12.93;5.90;;;;;;;;;;5056524;28;20131;-69
2022/01/07 08:46:34;;;;;;;12.48;5.88;;;;;;;;;;5074176;28;20159;-69
2022/01/07 08:49:02;;;;;;;14.80;6.35;;;;;;;;;;5074275;28;20416;-69
2022/01/07 08:51:30;;;;;;;14.05;5.22;;;;;;;;;;5074019;28;20055;-75
2022/01/07 08:54:02;;;;;;;11.38;5.63;;;;;;;;;;5065671;28;20071;-70
2022/01/07 08:56:29;;;;;;;11.13;4.97;;;;;;;;;;5073800;28;20071;-69
2022/01/07 08:58:58;;;;;;;10.57;5.38;;;;;;;;;;5073730;28;20044;-75
2022/01/07 09:01:28;;;;;;;11.98;4.80;;;;;;;;;;5073845;28;20048;-73
2022/01/07 09:03:56;;;;;;;10.25;5.00;;;;;;;;;;5073653;28;20492;-74
2022/01/07 09:06:25;;;;;;;11.65;5.40;;;;;;;;;;5073741;28;20567;-69
2022/01/07 09:08:53;;;;;;;12.75;5.20;;;;;;;;;;5073856;28;20505;-73
2022/01/07 09:11:20;;;;;;;10.52;5.38;;;;;;;;;;5055696;28;20389;-71
2022/01/07 09:13:51;;;;;;;9.57;5.05;;;;;;;;;;5056012;28;20055;-74
2022/01/07 09:16:21;;;;;;;11.20;5.18;;;;;;;;;;5073699;28;20040;-70
2022/01/07 09:18:49;;;;;;;11.05;5.35;;;;;;;;;;5072785;28;20569;-75
2022/01/07 09:21:17;;;;;;;15.02;6.28;;;;;;;;;;5073518;28;20037;-70
2022/01/07 09:23:46;;;;;;;13.68;6.22;;;;;;;;;;5073040;28;20045;-74
2022/01/07 09:26:14;;;;;;;17.13;7.18;;;;;;;;;;5073481;28;20045;-71
2022/01/07 09:28:41;;;;;;;11.57;6.95;;;;;;;;;;5073470;28;20058;-74
2022/01/07 09:31:11;;;;;;;14.20;6.57;;;;;;;;;;5054755;28;20123;-74
2022/01/07 09:33:39;;;;;;;18.67;9.88;;;;;;;;;;5073316;28;20087;-74
2022/01/07 09:36:27;;;;;;;21.15;9.52;;;;;;;;;;5073303;28;20036;-75
2022/01/07 09:38:54;;;;;;;19.48;9.43;;;;;;;;;;5073278;28;20043;-75
2022/01/07 09:41:22;;;;;;;20.05;8.77;;;;;;;;;;5073088;28;20128;-70
2022/01/07 09:43:51;;;;;;;12.75;4.05;;;;;;;;;;5073134;28;20063;-74
2022/01/07 09:46:19;;;;;;;14.68;2.85;;;;;;;;;;5072102;28;20062;-70
2022/01/07 09:48:47;;;;;;;11.02;1.90;;;;;;;;;;5072631;28;20204;-75
2022/01/07 09:51:16;;;;;;;15.63;2.38;;;;;;;;;;5073113;28;20039;-69
2022/01/07 09:53:43;;;;;;;9.15;2.28;;;;;;;;;;5072809;28;20045;-75
2022/01/07 09:56:12;;;;;;;10.13;2.35;;;;;;;;;;5073076;28;20414;-75
2022/01/07 09:58:39;;;;;;;9.23;2.10;;;;;;;;;;5073200;28;20047;-74
2022/01/07 10:01:14;;;;;;;13.43;2.10;;;;;;;;;;5073022;28;20040;-70
2022/01/07 10:03:44;;;;;;;8.80;2.10;;;;;;;;;;5072893;28;20112;-75
2022/01/07 10:06:38;;;;;;;10.95;2.28;;;;;;;;;;5072604;28;20550;-70
2022/01/07 10:09:25;;;;;;;18.33;2.05;;;;;;;;;;5072926;28;20044;-70
2022/01/07 10:12:02;;;;;;;9.90;1.92;;;;;;;;;;5072836;28;20045;-70
2022/01/07 10:14:32;;;;;;;11.32;1.45;;;;;;;;;;5072666;28;20044;-75
2022/01/07 10:17:00;;;;;;;10.70;2.08;;;;;;;;;;5072854;28;20514;-70
2022/01/07 10:19:35;;;;;;;10.40;1.80;;;;;;;;;;5072468;28;20037;-70
2022/01/07 10:22:03;;;;;;;6.38;1.48;;;;;;;;;;5072230;28;20041;-75
2022/01/07 10:24:31;;;;;;;12.35;2.00;;;;;;;;;;5073731;22;20132;-77
2022/01/07 10:27:12;;;;;;;18.85;2.15;;;;;;;;;;5052011;28;20124;-77
2022/01/07 10:29:41;;;;;;;13.38;2.38;;;;;;;;;;5052114;28;20080;-78
2022/01/07 10:32:23;;;;;;;11.00;2.28;;;;;;;;;;5051754;28;20515;-77
2022/01/07 10:35:01;;;;;;;8.68;2.30;;;;;;;;;;5034233;28;20045;-77
2022/01/07 10:37:31;;;;;;;14.32;3.20;;;;;;;;;;5034146;28;20404;-73
2022/01/07 10:40:00;;;;;;;10.10;3.13;;;;;;;;;;5017865;28;20056;-78
2022/01/07 10:42:28;;;;;;;8.38;2.65;;;;;;;;;;5037290;28;20448;-74
2022/01/07 10:45:03;;;;;;;11.20;2.83;;;;;;;;;;5056250;28;20049;-78
2022/01/07 10:47:31;;;;;;;9.85;3.53;;;;;;;;;;5038250;28;20045;-77
2022/01/07 10:50:19;;;;;;;7.55;2.53;;;;;;;;;;5038657;28;20139;-74
2022/01/07 10:52:47;;;;;;;3.85;2.10;;;;;;;;;;5038229;28;20040;-72
2022/01/07 10:55:21;;;;;;;7.65;2.20;;;;;;;;;;5055667;28;20051;-72
2022/01/07 10:57:50;;;;;;;5.68;1.98;;;;;;;;;;5055875;28;20045;-74
2022/01/07 11:00:19;;;;;;;3.75;1.80;;;;;;;;;;5034782;28;20044;-74
2022/01/07 11:02:47;;;;;;;5.35;1.50;;;;;;;;;;5036016;28;20053;-74
2022/01/07 11:05:15;;;;;;;2.10;1.20;;;;;;;;;;5022687;28;20077;-74
2022/01/07 11:07:44;;;;;;;4.65;1.45;;;;;;;;;;5001737;28;20073;-74
2022/01/07 11:10:12;;;;;;;5.68;1.83;;;;;;;;;;5035753;28;20328;-74
2022/01/07 11:12:40;;;;;;;3.63;1.83;;;;;;;;;;5018098;28;20117;-74
2022/01/07 11:15:10;;;;;;;5.38;1.75;;;;;;;;;;5035381;28;20096;-74
2022/01/07 11:17:38;;;;;;;9.48;2.03;;;;;;;;;;5035208;28;20042;-74
2022/01/07 11:20:12;;;;;;;6.47;2.28;;;;;;;;;;5035724;28;20456;-74
2022/01/07 11:22:43;;;;;;;5.85;2.10;;;;;;;;;;5018435;28;20038;-72
2022/01/07 11:25:13;;;;;;;4.93;2.08;;;;;;;;;;5017253;28;20464;-74
2022/01/07 11:28:00;;;;;;;4.00;2.50;;;;;;;;;;5035488;28;20124;-74
2022/01/07 11:30:35;;;;;;;6.72;2.40;;;;;;;;;;5017551;28;20037;-77
2022/01/07 11:33:15;;;;;;;6.18;2.65;;;;;;;;;;5046039;28;20103;-75
2022/01/07 11:35:45;;;;;;;3.72;2.40;;;;;;;;;;5055171;28;20049;-77
2022/01/07 11:38:17;;;;;;;4.55;2.92;;;;;;;;;;5055174;28;20550;-72
2022/01/07 11:40:47;;;;;;;9.20;2.80;;;;;;;;;;5037248;28;20496;-74
2022/01/07 11:43:18;;;;;;;6.18;2.88;;;;;;;;;;5036608;28;20036;-76
2022/01/07 11:45:47;;;;;;;4.80;3.15;;;;;;;;;;5055193;28;20041;-74
2022/01/07 11:48:15;;;;;;;6.78;3.30;;;;;;;;;;5036958;28;20041;-73
2022/01/07 11:51:00;;;;;;;5.18;3.10;;;;;;;;;;5055208;28;20055;-74
2022/01/07 11:53:43;;;;;;;5.35;3.10;;;;;;;;;;5053836;28;20045;-72
2022/01/07 11:56:11;;;;;;;;;;;;;;;;;;5037378;28;20080;-72
2022/01/07 11:58:55;;;;;;;5.18;2.28;;;;;;;;;;5025308;28;19927;-72
2022/01/07 12:01:25;;;;;;;5.03;2.03;;;;;;;;;;5027118;28;20075;-74
2022/01/07 12:03:54;;;;;;;6.07;2.13;;;;;;;;;;5025143;28;20033;-73
2022/01/07 12:06:31;;;;;;;3.08;1.67;;;;;;;;;;5049737;28;20037;-73
2022/01/07 12:09:03;;;;;;;7.03;2.22;;;;;;;;;;5054194;28;20137;-76
2022/01/07 12:11:31;;;;;;;6.82;2.35;;;;;;;;;;5035607;28;20037;-76
2022/01/07 12:14:01;;;;;;;5.00;2.20;;;;;;;;;;5036912;28;20051;-74
2022/01/07 12:16:32;;;;;;;4.40;2.10;;;;;;;;;;5054566;28;20063;-72
2022/01/07 12:19:23;;;;;;;5.78;2.35;;;;;;;;;;5036214;28;20045;-74
2022/01/07 12:21:55;;;;;;;5.53;2.67;;;;;;;;;;5054256;28;20041;-72
2022/01/07 12:24:24;;;;;;;3.95;2.30;;;;;;;;;;5025956;28;20062;-73
2022/01/07 12:27:05;;;;;;;2.60;1.83;;;;;;;;;;5034454;28;20030;-72
2022/01/07 12:29:34;;;;;;;5.03;1.65;;;;;;;;;;5000250;28;20076;-76
2022/01/07 12:32:05;;;;;;;4.72;1.70;;;;;;;;;;5034579;28;20114;-76
2022/01/07 12:34:40;;;;;;;1.95;1.40;;;;;;;;;;5034380;28;20058;-73
2022/01/07 12:37:08;;;;;;;1.80;1.52;;;;;;;;;;5000130;28;20053;-76
2022/01/07 12:39:37;;;;;;;2.08;1.65;;;;;;;;;;5034216;28;20034;-74
2022/01/07 12:42:06;;;;;;;2.58;1.33;;;;;;;;;;5033914;28;20037;-76
2022/01/07 12:44:43;;;;;;;4.15;1.42;;;;;;;;;;5034344;28;20041;-74
2022/01/07 12:47:14;;;;;;;1.33;1.23;;;;;;;;;;5016162;28;20099;-72
2022/01/07 12:49:42;;;;;;;2.25;1.60;;;;;;;;;;5033948;28;20041;-76
2022/01/07 12:52:21;;;;;;;2.47;1.40;;;;;;;;;;5034080;28;20064;-74
2022/01/07 12:54:59;;;;;;;1.48;1.20;;;;;;;;;;5033804;28;20135;-73
2022/01/07 12:57:27;;;;;;;2.53;1.42;;;;;;;;;;5034036;28;20068;-73
2022/01/07 13:00:08;;;;;;;5.60;1.45;;;;;;;;;;5033616;28;20044;-76
2022/01/07 13:02:36;;;;;;;2.17;1.67;;;;;;;;;;5016120;28;20100;-74
2022/01/07 13:05:13;;;;;;;4.97;1.40;;;;;;;;;;5033600;28;20041;-74
2022/01/07 13:07:43;;;;;;;5.80;1.45;;;;;;;;;;5015500;28;20128;-73
2022/01/07 13:10:13;;;;;;;4.13;1.55;;;;;;;;;;5016039;28;20140;-73
2022/01/07 13:12:41;;;;;;;2.53;1.20;;;;;;;;;;5033770;28;20120;-77
2022/01/07 13:15:10;;;;;;;6.97;1.50;;;;;;;;;;5033448;28;20505;-73
2022/01/07 13:17:38;;;;;;;4.70;1.38;;;;;;;;;;5015307;28;20518;-77
2022/01/07 13:20:07;;;;;;;2.30;1.50;;;;;;;;;;5015594;28;20045;-74
2022/01/07 13:22:35;;;;;;;2.95;1.30;;;;;;;;;;5033671;28;20044;-73
2022/01/07 13:25:03;;;;;;;2.55;1.50;;;;;;;;;;5015311;28;20160;-74
2022/01/07 13:27:30;;;;;;;3.40;1.63;;;;;;;;;;5015797;28;20065;-76
2022/01/07 13:29:59;;;;;;;1.40;1.30;;;;;;;;;;5032655;28;20497;-76
2022/01/07 13:32:28;;;;;;;2.05;1.40;;;;;;;;;;5015500;28;20125;-74
2022/01/07 13:35:04;;;;;;;3.53;2.00;;;;;;;;;;5033280;28;20048;-74
2022/01/07 13:37:32;;;;;;;3.10;2.00;;;;;;;;;;5015628;28;20049;-72
2022/01/07 13:40:01;;;;;;;7.28;1.60;;;;;;;;;;5015677;28;20037;-77
2022/01/07 13:42:30;;;;;;;8.32;2.17;;;;;;;;;;5032802;28;20038;-74
2022/01/07 13:45:03;;;;;;;3.47;1.33;;;;;;;;;;5032966;28;20120;-73
2022/01/07 13:47:36;;;;;;;2.28;1.60;;;;;;;;;;5015273;28;20422;-73
2022/01/07 13:50:14;;;;;;;7.60;1.77;;;;;;;;;;5015237;28;20071;-74
2022/01/07 13:52:43;;;;;;;2.90;1.73;;;;;;;;;;5032959;28;20045;-72
2022/01/07 13:55:36;;;;;;;1.75;1.50;;;;;;;;;;5032585;28;20428;-74
2022/01/07 13:58:05;;;;;;;1.73;1.35;;;;;;;;;;5029284;28;20136;-74
2022/01/07 14:00:36;;;;;;;3.78;1.83;;;;;;;;;;5014898;28;20084;-72
2022/01/07 14:03:05;;;;;;;3.33;1.83;;;;;;;;;;5032790;28;20037;-76
2022/01/07 14:05:33;;;;;;;4.32;2.42;;;;;;;;;;5015106;28;20136;-76
2022/01/07 14:08:06;;;;;;;5.20;2.47;;;;;;;;;;5032683;28;20065;-76
2022/01/07 14:10:39;;;;;;;4.05;3.03;;;;;;;;;;5032851;28;20120;-72
2022/01/07 14:13:14;;;;;;;4.55;3.10;;;;;;;;;;5015019;28;20049;-74
2022/01/07 14:15:43;;;;;;;7.63;3.42;;;;;;;;;;5032140;28;20073;-74
2022/01/07 14:18:16;;;;;;;8.30;4.07;;;;;;;;;;5031887;28;20220;-75
2022/01/07 14:20:49;;;;;;;6.85;4.95;;;;;;;;;;5032582;28;20068;-74
2022/01/07 14:23:24;;;;;;;7.72;4.90;;;;;;;;;;5032477;28;20037;-74
2022/01/07 14:26:01;;;;;;;7.18;4.95;;;;;;;;;;5051128;28;20155;-73
2022/01/07 14:28:32;;;;;;;8.15;5.47;;;;;;;;;;5052422;28;20535;-72
2022/01/07 14:30:59;;;;;;;8.95;5.63;;;;;;;;;;5051938;28;20037;-73
2022/01/07 14:33:31;;;;;;;10.90;6.25;;;;;;;;;;5052289;28;20037;-74
2022/01/07 14:36:00;;;;;;;9.18;5.88;;;;;;;;;;5052283;28;20041;-74
2022/01/07 14:38:28;;;;;;;9.18;6.20;;;;;;;;;;5052018;28;20041;-73
2022/01/07 14:40:57;;;;;;;13.13;8.38;;;;;;;;;;5034420;28;20051;-76
2022/01/07 14:43:25;;;;;;;9.55;6.50;;;;;;;;;;5034113;28;20083;-76
2022/01/07 14:45:53;;;;;;;14.15;6.60;;;;;;;;;;5052210;28;20039;-74
2022/01/07 14:48:22;;;;;;;10.98;6.53;;;;;;;;;;5052253;28;20033;-76
2022/01/07 14:50:49;;;;;;;12.75;6.70;;;;;;;;;;5052182;28;20129;-72
2022/01/07 14:53:18;;;;;;;12.65;9.13;;;;;;;;;;5052426;28;20044;-73
2022/01/07 14:55:47;;;;;;;13.85;8.77;;;;;;;;;;5051595;28;20124;-76
2022/01/07 14:58:15;;;;;;;21.83;12.30;;;;;;;;;;5052248;28;20044;-72
2022/01/07 15:00:43;;;;;;;23.70;12.95;;;;;;;;;;5052174;28;20492;-72
2022/01/07 15:03:12;;;;;;;18.48;10.27;;;;;;;;;;5034165;28;20064;-74